sensor_id;sensor_type;location;lat;lon;timestamp;pressure;altitude;pressure_sealevel;temperature;humidity
27984;BME280;15317;50.360;8.726;2023-06-22T00:02:53;99543.91;;;20.80;100.00
27984;BME280;15317;50.360;8.726;2023-06-22T00:07:57;99530.44;;;20.90;100.00
27984;BME280;15317;50.360;8.726;2023-06-22T00:13:00;99509.34;;;20.96;100.00
27984;BME280;15317;50.360;8.726;2023-06-22T00:18:04;99522.94;;;20.97;100.00
27984;BME280;15317;50.360;8.726;2023-06-22T00:23:08;99547.56;;;20.99;100.00
27984;BME280;15317;50.360;8.726;2023-06-22T00:28:12;99565.38;;;21.03;99.55
27984;BME280;15317;50.360;8.726;2023-06-22T00:38:19;99614.75;;;20.93;100.00
27984;BME280;15317;50.360;8.726;2023-06-22T00:43:22;99632.81;;;20.88;100.00
27984;BME280;15317;50.360;8.726;2023-06-22T00:48:26;99646.06;;;20.80;100.00
27984;BME280;15317;50.360;8.726;2023-06-22T00:53:31;99650.34;;;20.69;100.00
27984;BME280;15317;50.360;8.726;2023-06-22T00:58:37;99650.16;;;20.64;100.00
27984;BME280;15317;50.360;8.726;2023-06-22T01:03:43;99654.22;;;20.62;100.00
27984;BME280;15317;50.360;8.726;2023-06-22T01:08:56;99668.44;;;20.65;100.00
27984;BME280;15317;50.360;8.726;2023-06-22T01:14:04;99675.66;;;20.66;100.00
27984;BME280;15317;50.360;8.726;2023-06-22T01:19:20;99699.19;;;20.69;100.00
27984;BME280;15317;50.360;8.726;2023-06-22T01:24:32;99716.38;;;20.71;100.00
27984;BME280;15317;50.360;8.726;2023-06-22T01:29:39;99735.91;;;20.69;100.00
27984;BME280;15317;50.360;8.726;2023-06-22T01:34:45;99761.00;;;20.61;100.00
27984;BME280;15317;50.360;8.726;2023-06-22T01:39:49;99753.41;;;20.50;100.00
27984;BME280;15317;50.360;8.726;2023-06-22T01:44:55;99724.63;;;20.33;100.00
27984;BME280;15317;50.360;8.726;2023-06-22T01:49:59;99700.03;;;20.05;100.00
27984;BME280;15317;50.360;8.726;2023-06-22T01:55:04;99704.28;;;19.94;100.00
27984;BME280;15317;50.360;8.726;2023-06-22T02:00:13;99691.59;;;19.80;100.00
27984;BME280;15317;50.360;8.726;2023-06-22T02:05:18;99688.22;;;19.78;100.00
27984;BME280;15317;50.360;8.726;2023-06-22T02:10:23;99681.88;;;19.64;100.00
27984;BME280;15317;50.360;8.726;2023-06-22T02:15:29;99701.78;;;19.60;100.00
27984;BME280;15317;50.360;8.726;2023-06-22T02:20:36;99721.72;;;19.55;100.00
27984;BME280;15317;50.360;8.726;2023-06-22T02:25:39;99725.75;;;19.46;100.00
27984;BME280;15317;50.360;8.726;2023-06-22T02:30:47;99695.41;;;19.40;100.00
27984;BME280;15317;50.360;8.726;2023-06-22T02:35:50;99676.97;;;19.33;100.00
27984;BME280;15317;50.360;8.726;2023-06-22T02:40:53;99663.22;;;19.33;100.00
27984;BME280;15317;50.360;8.726;2023-06-22T02:45:58;99683.97;;;19.29;100.00
27984;BME280;15317;50.360;8.726;2023-06-22T02:51:01;99689.25;;;19.24;100.00
27984;BME280;15317;50.360;8.726;2023-06-22T02:56:05;99695.00;;;19.23;100.00
27984;BME280;15317;50.360;8.726;2023-06-22T03:01:10;99700.91;;;19.13;100.00
27984;BME280;15317;50.360;8.726;2023-06-22T03:06:17;99679.53;;;19.09;100.00
27984;BME280;15317;50.360;8.726;2023-06-22T03:11:26;99656.84;;;19.13;100.00
27984;BME280;15317;50.360;8.726;2023-06-22T03:16:31;99654.28;;;19.05;100.00
27984;BME280;15317;50.360;8.726;2023-06-22T03:21:35;99658.09;;;18.98;100.00
27984;BME280;15317;50.360;8.726;2023-06-22T03:26:40;99658.75;;;18.93;100.00
27984;BME280;15317;50.360;8.726;2023-06-22T03:31:45;99648.75;;;18.79;100.00
27984;BME280;15317;50.360;8.726;2023-06-22T03:36:48;99644.50;;;18.70;100.00
27984;BME280;15317;50.360;8.726;2023-06-22T03:41:52;99648.34;;;18.75;100.00
27984;BME280;15317;50.360;8.726;2023-06-22T03:46:56;99671.63;;;18.86;100.00
27984;BME280;15317;50.360;8.726;2023-06-22T03:52:00;99662.53;;;18.92;100.00
27984;BME280;15317;50.360;8.726;2023-06-22T03:57:04;99661.50;;;19.00;100.00
27984;BME280;15317;50.360;8.726;2023-06-22T04:02:11;99651.75;;;18.97;100.00
27984;BME280;15317;50.360;8.726;2023-06-22T04:07:14;99649.66;;;19.06;100.00
27984;BME280;15317;50.360;8.726;2023-06-22T04:12:17;99671.06;;;19.17;100.00
27984;BME280;15317;50.360;8.726;2023-06-22T04:17:21;99655.78;;;19.34;100.00
27984;BME280;15317;50.360;8.726;2023-06-22T04:22:27;99651.78;;;19.37;100.00
27984;BME280;15317;50.360;8.726;2023-06-22T04:27:30;99661.50;;;19.46;100.00
27984;BME280;15317;50.360;8.726;2023-06-22T04:32:35;99664.06;;;19.54;100.00
27984;BME280;15317;50.360;8.726;2023-06-22T04:37:38;99671.06;;;19.56;100.00
27984;BME280;15317;50.360;8.726;2023-06-22T04:42:42;99664.06;;;19.67;100.00
27984;BME280;15317;50.360;8.726;2023-06-22T04:47:57;99660.44;;;19.73;100.00
27984;BME280;15317;50.360;8.726;2023-06-22T04:53:00;99659.56;;;19.79;100.00
27984;BME280;15317;50.360;8.726;2023-06-22T04:58:07;99670.81;;;19.84;100.00
27984;BME280;15317;50.360;8.726;2023-06-22T05:03:12;99670.59;;;19.92;100.00
27984;BME280;15317;50.360;8.726;2023-06-22T05:08:21;99670.34;;;20.00;100.00
27984;BME280;15317;50.360;8.726;2023-06-22T05:13:30;99663.31;;;20.18;100.00
27984;BME280;15317;50.360;8.726;2023-06-22T05:18:35;99645.22;;;20.35;100.00
27984;BME280;15317;50.360;8.726;2023-06-22T05:23:39;99643.50;;;20.40;100.00
27984;BME280;15317;50.360;8.726;2023-06-22T05:28:42;99634.94;;;20.55;100.00
27984;BME280;15317;50.360;8.726;2023-06-22T05:33:53;99642.06;;;20.69;100.00
27984;BME280;15317;50.360;8.726;2023-06-22T05:38:57;99653.22;;;20.87;100.00
27984;BME280;15317;50.360;8.726;2023-06-22T05:44:00;99637.09;;;21.16;100.00
27984;BME280;15317;50.360;8.726;2023-06-22T05:49:05;99626.56;;;21.31;100.00
27984;BME280;15317;50.360;8.726;2023-06-22T05:54:08;99628.59;;;21.42;100.00
27984;BME280;15317;50.360;8.726;2023-06-22T05:59:12;99607.38;;;21.61;100.00
27984;BME280;15317;50.360;8.726;2023-06-22T06:04:17;99610.06;;;21.67;100.00
27984;BME280;15317;50.360;8.726;2023-06-22T06:09:20;99609.75;;;21.76;100.00
27984;BME280;15317;50.360;8.726;2023-06-22T06:14:24;99614.81;;;21.79;100.00
27984;BME280;15317;50.360;8.726;2023-06-22T06:19:28;99595.94;;;21.94;100.00
27984;BME280;15317;50.360;8.726;2023-06-22T06:24:32;99610.66;;;22.42;100.00
27984;BME280;15317;50.360;8.726;2023-06-22T06:29:35;99590.47;;;23.37;100.00
27984;BME280;15317;50.360;8.726;2023-06-22T06:34:40;99591.03;;;24.20;100.00
27984;BME280;15317;50.360;8.726;2023-06-22T06:39:45;99588.69;;;24.86;95.97
27984;BME280;15317;50.360;8.726;2023-06-22T06:44:49;99583.78;;;25.21;92.23
27984;BME280;15317;50.360;8.726;2023-06-22T06:49:54;99579.78;;;25.84;86.13
27984;BME280;15317;50.360;8.726;2023-06-22T06:54:57;99581.53;;;25.90;89.06
27984;BME280;15317;50.360;8.726;2023-06-22T07:00:01;99565.13;;;26.59;83.65
27984;BME280;15317;50.360;8.726;2023-06-22T07:05:11;99574.13;;;27.25;79.82
27984;BME280;15317;50.360;8.726;2023-06-22T07:10:15;99573.16;;;27.41;80.40
27984;BME280;15317;50.360;8.726;2023-06-22T07:15:18;99564.06;;;28.03;78.70
27984;BME280;15317;50.360;8.726;2023-06-22T07:20:23;99564.00;;;27.92;76.05
27984;BME280;15317;50.360;8.726;2023-06-22T07:25:26;99561.59;;;28.11;73.25
27984;BME280;15317;50.360;8.726;2023-06-22T07:30:31;99550.88;;;28.55;67.96
27984;BME280;15317;50.360;8.726;2023-06-22T07:35:37;99542.00;;;28.94;70.11
27984;BME280;15317;50.360;8.726;2023-06-22T07:40:40;99550.13;;;29.66;68.51
27984;BME280;15317;50.360;8.726;2023-06-22T07:45:48;99551.19;;;29.85;63.94
27984;BME280;15317;50.360;8.726;2023-06-22T07:50:55;99546.97;;;29.98;65.72
27984;BME280;15317;50.360;8.726;2023-06-22T07:55:59;99555.13;;;30.54;64.54
27984;BME280;15317;50.360;8.726;2023-06-22T08:01:02;99551.31;;;31.23;61.72
27984;BME280;15317;50.360;8.726;2023-06-22T08:06:07;99538.31;;;30.54;62.87
27984;BME280;15317;50.360;8.726;2023-06-22T08:11:11;99523.97;;;31.33;57.69
27984;BME280;15317;50.360;8.726;2023-06-22T08:16:14;99517.09;;;30.82;57.01
27984;BME280;15317;50.360;8.726;2023-06-22T08:21:19;99534.41;;;31.28;58.06
27984;BME280;15317;50.360;8.726;2023-06-22T08:26:22;99528.13;;;31.41;52.91
27984;BME280;15317;50.360;8.726;2023-06-22T08:31:26;99513.31;;;31.01;54.61
27984;BME280;15317;50.360;8.726;2023-06-22T08:36:31;99513.53;;;32.39;55.58
27984;BME280;15317;50.360;8.726;2023-06-22T08:41:36;99500.47;;;32.06;53.61
27984;BME280;15317;50.360;8.726;2023-06-22T08:46:40;99508.47;;;33.11;51.60
27984;BME280;15317;50.360;8.726;2023-06-22T08:51:45;99513.16;;;33.02;52.95
27984;BME280;15317;50.360;8.726;2023-06-22T08:56:51;99496.44;;;32.12;50.25
27984;BME280;15317;50.360;8.726;2023-06-22T09:01:54;99486.34;;;32.11;54.04
27984;BME280;15317;50.360;8.726;2023-06-22T09:07:01;99480.47;;;33.66;49.58
27984;BME280;15317;50.360;8.726;2023-06-22T09:12:05;99488.66;;;33.03;49.75
27984;BME280;15317;50.360;8.726;2023-06-22T09:17:09;99489.31;;;33.13;49.95
27984;BME280;15317;50.360;8.726;2023-06-22T09:22:14;99475.53;;;33.12;48.13
27984;BME280;15317;50.360;8.726;2023-06-22T09:27:17;99474.50;;;33.08;46.30
27984;BME280;15317;50.360;8.726;2023-06-22T09:32:21;99471.13;;;33.38;48.35
27984;BME280;15317;50.360;8.726;2023-06-22T09:37:26;99463.47;;;33.57;47.37
27984;BME280;15317;50.360;8.726;2023-06-22T09:42:29;99441.63;;;32.71;48.73
27984;BME280;15317;50.360;8.726;2023-06-22T09:47:33;99432.56;;;32.55;50.04
27984;BME280;15317;50.360;8.726;2023-06-22T09:52:38;99442.25;;;33.32;52.49
27984;BME280;15317;50.360;8.726;2023-06-22T09:57:49;99424.25;;;33.75;47.71
27984;BME280;15317;50.360;8.726;2023-06-22T10:02:52;99423.94;;;33.49;46.35
27984;BME280;15317;50.360;8.726;2023-06-22T10:07:58;99418.06;;;33.31;45.86
27984;BME280;15317;50.360;8.726;2023-06-22T10:13:07;99415.72;;;32.74;47.64
27984;BME280;15317;50.360;8.726;2023-06-22T10:18:11;99397.44;;;33.04;45.13
27984;BME280;15317;50.360;8.726;2023-06-22T10:23:16;99394.69;;;32.52;46.85
27984;BME280;15317;50.360;8.726;2023-06-22T10:28:19;99384.41;;;32.43;48.10
27984;BME280;15317;50.360;8.726;2023-06-22T10:33:23;99379.72;;;32.38;46.20
27984;BME280;15317;50.360;8.726;2023-06-22T10:38:27;99359.16;;;33.21;45.50
27984;BME280;15317;50.360;8.726;2023-06-22T10:43:31;99350.50;;;33.31;45.83
27984;BME280;15317;50.360;8.726;2023-06-22T10:48:34;99343.94;;;33.99;46.32
27984;BME280;15317;50.360;8.726;2023-06-22T10:53:39;99341.25;;;33.94;42.77
27984;BME280;15317;50.360;8.726;2023-06-22T10:58:44;99326.97;;;34.27;41.07
27984;BME280;15317;50.360;8.726;2023-06-22T11:03:47;99322.59;;;34.87;40.52
27984;BME280;15317;50.360;8.726;2023-06-22T11:08:52;99299.81;;;33.31;41.43
27984;BME280;15317;50.360;8.726;2023-06-22T11:14:07;99285.00;;;33.12;43.43
27984;BME280;15317;50.360;8.726;2023-06-22T11:19:11;99284.81;;;33.50;41.67
27984;BME280;15317;50.360;8.726;2023-06-22T11:24:16;99277.72;;;34.24;39.61
27984;BME280;15317;50.360;8.726;2023-06-22T11:29:19;99254.44;;;33.96;39.13
27984;BME280;15317;50.360;8.726;2023-06-22T11:34:42;99260.31;;;33.86;39.56
27984;BME280;15317;50.360;8.726;2023-06-22T11:39:47;99243.28;;;34.14;38.70
27984;BME280;15317;50.360;8.726;2023-06-22T11:45:07;99233.38;;;34.38;37.75
27984;BME280;15317;50.360;8.726;2023-06-22T11:50:11;99230.84;;;34.99;36.88
27984;BME280;15317;50.360;8.726;2023-06-22T11:55:15;99229.94;;;35.29;38.57
27984;BME280;15317;50.360;8.726;2023-06-22T12:00:19;99217.59;;;34.15;39.41
27984;BME280;15317;50.360;8.726;2023-06-22T12:05:24;99218.19;;;33.67;39.85
27984;BME280;15317;50.360;8.726;2023-06-22T12:10:29;99207.03;;;33.26;41.80
27984;BME280;15317;50.360;8.726;2023-06-22T12:15:33;99200.75;;;34.01;42.64
27984;BME280;15317;50.360;8.726;2023-06-22T12:20:36;99194.78;;;34.56;39.58
27984;BME280;15317;50.360;8.726;2023-06-22T12:25:40;99191.69;;;35.06;38.37
27984;BME280;15317;50.360;8.726;2023-06-22T12:30:44;99193.59;;;34.79;38.33
27984;BME280;15317;50.360;8.726;2023-06-22T12:35:47;99177.97;;;35.39;39.39
27984;BME280;15317;50.360;8.726;2023-06-22T12:40:52;99177.13;;;35.30;37.92
27984;BME280;15317;50.360;8.726;2023-06-22T12:45:55;99184.38;;;35.05;37.78
27984;BME280;15317;50.360;8.726;2023-06-22T12:50:59;99167.50;;;35.31;40.83
27984;BME280;15317;50.360;8.726;2023-06-22T12:56:03;99176.50;;;35.93;39.27
27984;BME280;15317;50.360;8.726;2023-06-22T13:01:06;99169.66;;;36.58;36.26
27984;BME280;15317;50.360;8.726;2023-06-22T13:06:11;99156.38;;;35.69;36.70
27984;BME280;15317;50.360;8.726;2023-06-22T13:11:16;99146.41;;;35.88;38.38
27984;BME280;15317;50.360;8.726;2023-06-22T13:16:19;99139.44;;;35.60;39.56
27984;BME280;15317;50.360;8.726;2023-06-22T13:21:22;99137.94;;;35.71;36.57
27984;BME280;15317;50.360;8.726;2023-06-22T13:26:27;99133.97;;;35.81;37.66
27984;BME280;15317;50.360;8.726;2023-06-22T13:31:31;99120.97;;;35.88;36.97
27984;BME280;15317;50.360;8.726;2023-06-22T13:36:34;99102.38;;;35.44;38.38
27984;BME280;15317;50.360;8.726;2023-06-22T13:41:38;99094.91;;;34.57;41.13
27984;BME280;15317;50.360;8.726;2023-06-22T13:46:41;99091.69;;;34.72;40.58
27984;BME280;15317;50.360;8.726;2023-06-22T13:51:44;99083.59;;;35.14;41.92
27984;BME280;15317;50.360;8.726;2023-06-22T13:56:51;99075.94;;;34.80;39.71
27984;BME280;15317;50.360;8.726;2023-06-22T14:01:54;99083.09;;;34.46;40.35
27984;BME280;15317;50.360;8.726;2023-06-22T14:06:58;99069.81;;;34.47;40.26
27984;BME280;15317;50.360;8.726;2023-06-22T14:12:07;99064.63;;;34.88;39.91
27984;BME280;15317;50.360;8.726;2023-06-22T14:17:10;99048.56;;;34.32;41.07
27984;BME280;15317;50.360;8.726;2023-06-22T14:22:14;99020.28;;;33.53;42.55
27984;BME280;15317;50.360;8.726;2023-06-22T14:27:19;99009.56;;;32.75;43.66
27984;BME280;15317;50.360;8.726;2023-06-22T14:32:22;99015.75;;;32.22;45.19
27984;BME280;15317;50.360;8.726;2023-06-22T14:37:26;99002.00;;;31.80;46.34
27984;BME280;15317;50.360;8.726;2023-06-22T14:42:30;98986.41;;;31.41;47.55
27984;BME280;15317;50.360;8.726;2023-06-22T14:47:34;98984.22;;;31.06;47.54
27984;BME280;15317;50.360;8.726;2023-06-22T14:52:37;98964.84;;;30.72;48.92
27984;BME280;15317;50.360;8.726;2023-06-22T14:57:42;98942.41;;;30.90;49.30
27984;BME280;15317;50.360;8.726;2023-06-22T15:02:45;98931.97;;;30.77;49.57
27984;BME280;15317;50.360;8.726;2023-06-22T15:07:48;98935.84;;;30.63;51.81
27984;BME280;15317;50.360;8.726;2023-06-22T15:12:53;98937.38;;;30.55;51.62
27984;BME280;15317;50.360;8.726;2023-06-22T15:17:56;98925.13;;;30.46;52.82
27984;BME280;15317;50.360;8.726;2023-06-22T15:22:59;98928.16;;;30.31;52.34
27984;BME280;15317;50.360;8.726;2023-06-22T15:28:04;98940.44;;;30.35;54.87
27984;BME280;15317;50.360;8.726;2023-06-22T15:33:07;98927.47;;;30.20;54.80
27984;BME280;15317;50.360;8.726;2023-06-22T15:38:10;98916.78;;;30.03;54.20
27984;BME280;15317;50.360;8.726;2023-06-22T15:43:15;98932.75;;;29.79;57.80
27984;BME280;15317;50.360;8.726;2023-06-22T15:48:19;98946.94;;;29.64;61.38
27984;BME280;15317;50.360;8.726;2023-06-22T15:53:22;98934.09;;;28.66;87.53
27984;BME280;15317;50.360;8.726;2023-06-22T15:58:27;98968.44;;;26.47;96.97
27984;BME280;15317;50.360;8.726;2023-06-22T16:03:30;98912.69;;;24.70;100.00
27984;BME280;15317;50.360;8.726;2023-06-22T16:08:33;98868.16;;;23.74;100.00
27984;BME280;15317;50.360;8.726;2023-06-22T16:13:38;98898.97;;;23.56;100.00
27984;BME280;15317;50.360;8.726;2023-06-22T16:18:42;98933.53;;;23.32;100.00
27984;BME280;15317;50.360;8.726;2023-06-22T16:23:45;98969.41;;;23.21;100.00
27984;BME280;15317;50.360;8.726;2023-06-22T16:28:50;99121.31;;;23.24;100.00
27984;BME280;15317;50.360;8.726;2023-06-22T16:33:53;99138.38;;;22.48;100.00
27984;BME280;15317;50.360;8.726;2023-06-22T16:38:56;99118.84;;;21.45;100.00
27984;BME280;15317;50.360;8.726;2023-06-22T16:44:01;99131.63;;;20.74;100.00
27984;BME280;15317;50.360;8.726;2023-06-22T16:49:07;99175.00;;;19.94;100.00
27984;BME280;15317;50.360;8.726;2023-06-22T16:54:10;99169.00;;;19.29;100.00
27984;BME280;15317;50.360;8.726;2023-06-22T16:59:15;99185.34;;;19.24;100.00
27984;BME280;15317;50.360;8.726;2023-06-22T17:04:21;99129.72;;;19.16;100.00
27984;BME280;15317;50.360;8.726;2023-06-22T17:09:25;99132.59;;;19.27;100.00
27984;BME280;15317;50.360;8.726;2023-06-22T17:14:30;99128.59;;;19.23;100.00
27984;BME280;15317;50.360;8.726;2023-06-22T17:19:34;99122.13;;;19.36;100.00
27984;BME280;15317;50.360;8.726;2023-06-22T17:24:39;99135.47;;;19.64;100.00
27984;BME280;15317;50.360;8.726;2023-06-22T17:29:44;99132.28;;;19.85;100.00
27984;BME280;15317;50.360;8.726;2023-06-22T17:34:52;99127.47;;;19.99;100.00
27984;BME280;15317;50.360;8.726;2023-06-22T17:39:57;99116.22;;;20.19;100.00
27984;BME280;15317;50.360;8.726;2023-06-22T17:45:02;99113.47;;;20.37;100.00
27984;BME280;15317;50.360;8.726;2023-06-22T17:50:06;99115.72;;;20.58;100.00
27984;BME280;15317;50.360;8.726;2023-06-22T17:55:09;99116.47;;;20.65;100.00
27984;BME280;15317;50.360;8.726;2023-06-22T18:00:15;99122.63;;;20.67;100.00
27984;BME280;15317;50.360;8.726;2023-06-22T18:05:28;99143.13;;;20.71;100.00
27984;BME280;15317;50.360;8.726;2023-06-22T18:10:33;99117.47;;;20.82;100.00
27984;BME280;15317;50.360;8.726;2023-06-22T18:15:39;99106.13;;;20.90;100.00
27984;BME280;15317;50.360;8.726;2023-06-22T18:20:42;99094.13;;;20.97;100.00
27984;BME280;15317;50.360;8.726;2023-06-22T18:25:47;99102.91;;;20.94;100.00
27984;BME280;15317;50.360;8.726;2023-06-22T18:30:53;99104.38;;;21.08;100.00
27984;BME280;15317;50.360;8.726;2023-06-22T18:35:56;99103.13;;;21.04;100.00
27984;BME280;15317;50.360;8.726;2023-06-22T18:41:00;99090.91;;;21.00;100.00
27984;BME280;15317;50.360;8.726;2023-06-22T18:46:35;99074.25;;;20.76;100.00
27984;BME280;15317;50.360;8.726;2023-06-22T18:51:55;99086.56;;;20.62;100.00
27984;BME280;15317;50.360;8.726;2023-06-22T18:56:59;99097.94;;;20.54;100.00
27984;BME280;15317;50.360;8.726;2023-06-22T19:02:08;99111.16;;;20.52;100.00
27984;BME280;15317;50.360;8.726;2023-06-22T19:07:11;99114.13;;;20.50;100.00
27984;BME280;15317;50.360;8.726;2023-06-22T19:12:22;99104.13;;;20.38;100.00
27984;BME280;15317;50.360;8.726;2023-06-22T19:17:28;99087.22;;;20.28;100.00
27984;BME280;15317;50.360;8.726;2023-06-22T19:22:44;99077.63;;;20.19;100.00
27984;BME280;15317;50.360;8.726;2023-06-22T19:27:49;99072.72;;;20.02;100.00
27984;BME280;15317;50.360;8.726;2023-06-22T19:32:56;99070.81;;;20.03;100.00
27984;BME280;15317;50.360;8.726;2023-06-22T19:38:00;99069.41;;;19.94;100.00
27984;BME280;15317;50.360;8.726;2023-06-22T19:43:05;99060.38;;;19.87;100.00
27984;BME280;15317;50.360;8.726;2023-06-22T19:48:11;99080.81;;;19.79;100.00
27984;BME280;15317;50.360;8.726;2023-06-22T19:53:15;99101.09;;;19.66;100.00
27984;BME280;15317;50.360;8.726;2023-06-22T19:58:20;99097.81;;;19.58;100.00
27984;BME280;15317;50.360;8.726;2023-06-22T20:03:28;99112.19;;;19.60;100.00
27984;BME280;15317;50.360;8.726;2023-06-22T20:08:41;99122.00;;;19.56;100.00
27984;BME280;15317;50.360;8.726;2023-06-22T20:13:46;99124.59;;;19.51;100.00
27984;BME280;15317;50.360;8.726;2023-06-22T20:19:07;99107.69;;;19.41;100.00
27984;BME280;15317;50.360;8.726;2023-06-22T20:24:13;99099.53;;;19.27;100.00
27984;BME280;15317;50.360;8.726;2023-06-22T20:29:23;99085.41;;;19.24;100.00
27984;BME280;15317;50.360;8.726;2023-06-22T20:34:32;99094.47;;;19.24;100.00
27984;BME280;15317;50.360;8.726;2023-06-22T20:39:35;99103.19;;;19.21;100.00
27984;BME280;15317;50.360;8.726;2023-06-22T20:44:39;99114.06;;;19.16;100.00
27984;BME280;15317;50.360;8.726;2023-06-22T20:49:43;99097.34;;;19.11;100.00
27984;BME280;15317;50.360;8.726;2023-06-22T20:54:46;99113.84;;;19.11;100.00
27984;BME280;15317;50.360;8.726;2023-06-22T20:59:50;99114.59;;;19.00;100.00
27984;BME280;15317;50.360;8.726;2023-06-22T21:04:54;99116.13;;;18.96;100.00
27984;BME280;15317;50.360;8.726;2023-06-22T21:09:57;99145.28;;;18.97;100.00
27984;BME280;15317;50.360;8.726;2023-06-22T21:15:01;99143.63;;;18.96;100.00
27984;BME280;15317;50.360;8.726;2023-06-22T21:20:08;99150.41;;;18.93;100.00
27984;BME280;15317;50.360;8.726;2023-06-22T21:25:13;99167.59;;;18.89;100.00
27984;BME280;15317;50.360;8.726;2023-06-22T21:30:16;99156.97;;;18.92;100.00
27984;BME280;15317;50.360;8.726;2023-06-22T21:35:21;99169.28;;;18.90;100.00
27984;BME280;15317;50.360;8.726;2023-06-22T21:40:25;99177.41;;;19.10;100.00
27984;BME280;15317;50.360;8.726;2023-06-22T21:45:28;99184.75;;;19.22;100.00
27984;BME280;15317;50.360;8.726;2023-06-22T21:50:33;99203.97;;;19.29;100.00
27984;BME280;15317;50.360;8.726;2023-06-22T21:55:37;99195.47;;;19.30;100.00
27984;BME280;15317;50.360;8.726;2023-06-22T22:00:40;99180.97;;;19.42;100.00
27984;BME280;15317;50.360;8.726;2023-06-22T22:05:45;99193.63;;;19.56;100.00
27984;BME280;15317;50.360;8.726;2023-06-22T22:10:48;99197.00;;;19.58;100.00
27984;BME280;15317;50.360;8.726;2023-06-22T22:15:52;99187.25;;;19.55;100.00
27984;BME280;15317;50.360;8.726;2023-06-22T22:20:57;99202.59;;;19.45;100.00
27984;BME280;15317;50.360;8.726;2023-06-22T22:26:00;99215.78;;;19.36;100.00
27984;BME280;15317;50.360;8.726;2023-06-22T22:31:04;99229.19;;;19.26;100.00
27984;BME280;15317;50.360;8.726;2023-06-22T22:36:08;99226.69;;;19.18;100.00
27984;BME280;15317;50.360;8.726;2023-06-22T22:41:12;99222.31;;;19.10;100.00
27984;BME280;15317;50.360;8.726;2023-06-22T22:46:15;99223.59;;;19.08;100.00
27984;BME280;15317;50.360;8.726;2023-06-22T22:51:20;99199.91;;;19.00;100.00
27984;BME280;15317;50.360;8.726;2023-06-22T22:56:24;99199.97;;;18.93;100.00
27984;BME280;15317;50.360;8.726;2023-06-22T23:01:27;99201.44;;;18.96;100.00
27984;BME280;15317;50.360;8.726;2023-06-22T23:06:32;99190.47;;;18.89;100.00
27984;BME280;15317;50.360;8.726;2023-06-22T23:11:36;99181.84;;;18.79;100.00
27984;BME280;15317;50.360;8.726;2023-06-22T23:16:39;99187.84;;;18.63;100.00
27984;BME280;15317;50.360;8.726;2023-06-22T23:21:44;99197.38;;;18.61;100.00
27984;BME280;15317;50.360;8.726;2023-06-22T23:26:47;99196.56;;;18.47;100.00
27984;BME280;15317;50.360;8.726;2023-06-22T23:31:51;99196.41;;;18.35;100.00
27984;BME280;15317;50.360;8.726;2023-06-22T23:36:58;99168.47;;;18.32;100.00
27984;BME280;15317;50.360;8.726;2023-06-22T23:42:01;99153.31;;;18.16;100.00
27984;BME280;15317;50.360;8.726;2023-06-22T23:47:05;99159.06;;;18.08;100.00
27984;BME280;15317;50.360;8.726;2023-06-22T23:52:09;99168.56;;;18.05;100.00
27984;BME280;15317;50.360;8.726;2023-06-22T23:57:13;99154.03;;;17.92;100.00
